Terminal Aerodrome Forecast
Issued by NWS Charleston, WV

Current Version | Previous Version | Graphics & Text | Print | Product List | Glossary On
Versions: 1 2 3 4 5 6 7 8 9 10 11 12 13 14 15 16 17 18 19 20 21 22 23 24 25 26
000
FTUS41 KRLX 221120
TAFCRW
TAF
KCRW 221120Z 2212/2312 23007KT P6SM SCT200
     FM221900 23010G16KT P6SM VCTS SCT050CB
     FM222300 25008KT 2SM +TSRA OVC025CB PROB30 2223/2302 27035G50KT
      1/2SM +TSRAGR OVC010CB
     FM230200 26006KT 4SM SHRA VCTS OVC035CB
     FM230400 26004KT P6SM VCSH OVC040
     FM230600 28007KT P6SM OVC035=

USA.gov is the U.S. government's official web portal to all federal, state and local government web resources and services.